createdAt,value
2023-05-06T00:00:03.094Z,33.99
2023-05-06T00:01:03.090Z,33.94
2023-05-06T00:02:03.097Z,33.94
2023-05-06T00:03:03.133Z,33.99
2023-05-06T00:04:03.314Z,33.95
2023-05-06T00:05:03.042Z,34.00
2023-05-06T00:06:03.048Z,34.03
2023-05-06T00:07:03.028Z,33.99
2023-05-06T00:08:03.037Z,33.96
2023-05-06T00:09:03.013Z,34.00
2023-05-06T00:10:03.059Z,34.00
2023-05-06T00:11:03.004Z,33.96
2023-05-06T00:12:03.088Z,34.03
2023-05-06T00:13:03.042Z,34.00
2023-05-06T00:14:03.002Z,33.98
2023-05-06T00:15:03.033Z,34.03
2023-05-06T00:16:03.092Z,34.02
2023-05-06T00:17:02.975Z,33.99
2023-05-06T00:18:03.017Z,34.02
2023-05-06T00:19:02.948Z,33.98
2023-05-06T00:20:02.991Z,33.98
2023-05-06T00:21:02.943Z,34.02
2023-05-06T00:22:02.945Z,33.99
2023-05-06T00:23:02.920Z,34.00
2023-05-06T00:24:02.931Z,34.04
2023-05-06T00:25:02.926Z,33.98
2023-05-06T00:26:02.884Z,34.03
2023-05-06T00:27:02.887Z,33.99
2023-05-06T00:28:02.916Z,34.00
2023-05-06T00:29:02.889Z,33.98
2023-05-06T00:30:02.920Z,33.99
2023-05-06T00:31:02.868Z,34.00
2023-05-06T00:32:02.914Z,34.04
2023-05-06T00:33:02.975Z,33.94
2023-05-06T00:34:02.829Z,34.00
2023-05-06T00:35:02.852Z,34.01
2023-05-06T00:36:02.866Z,34.04
2023-05-06T00:37:02.829Z,34.00
2023-05-06T00:38:02.844Z,34.03
2023-05-06T00:39:02.836Z,34.01
2023-05-06T00:40:02.842Z,34.04
2023-05-06T00:41:02.801Z,34.03
2023-05-06T00:42:02.803Z,34.04
2023-05-06T00:43:02.782Z,34.03
2023-05-06T00:44:02.904Z,34.03
2023-05-06T00:45:02.779Z,34.03
2023-05-06T00:46:02.780Z,34.04
2023-05-06T00:47:02.750Z,34.04
2023-05-06T00:48:02.827Z,34.03
2023-05-06T00:49:02.747Z,34.04
2023-05-06T00:50:02.763Z,34.05
2023-05-06T00:51:02.734Z,34.03
2023-05-06T00:52:02.742Z,34.09
2023-05-06T00:53:02.724Z,34.04
2023-05-06T00:54:02.736Z,34.04
2023-05-06T00:55:02.716Z,34.05
2023-05-06T00:56:02.694Z,34.04
2023-05-06T00:57:02.696Z,34.10
2023-05-06T00:58:02.696Z,34.05
2023-05-06T00:59:02.673Z,34.09
2023-05-06T01:00:02.686Z,34.08
2023-05-06T01:01:02.706Z,34.09
2023-05-06T01:02:02.658Z,34.06
2023-05-06T01:03:02.741Z,34.09
2023-05-06T01:04:02.700Z,34.09
2023-05-06T01:05:02.751Z,34.12
2023-05-06T01:06:02.637Z,34.06
2023-05-06T01:07:02.654Z,34.05
2023-05-06T01:08:02.680Z,34.06
2023-05-06T01:09:02.719Z,34.08
2023-05-06T01:10:02.717Z,34.09
2023-05-06T01:11:02.792Z,34.09
2023-05-06T01:12:02.833Z,34.12
2023-05-06T01:13:02.847Z,34.09
2023-05-06T01:14:02.863Z,34.08
2023-05-06T01:15:02.869Z,34.09
2023-05-06T01:16:03.083Z,34.10
2023-05-06T01:17:02.955Z,34.09
2023-05-06T01:18:03.005Z,34.11
2023-05-06T01:19:02.980Z,34.10
2023-05-06T01:20:03.044Z,34.09
2023-05-06T01:21:03.074Z,34.11
2023-05-06T01:22:03.112Z,34.10
2023-05-06T01:23:03.116Z,34.12
2023-05-06T01:24:03.150Z,34.12
2023-05-06T01:25:03.195Z,34.13
2023-05-06T01:26:03.212Z,34.09
2023-05-06T01:27:03.258Z,34.12
2023-05-06T01:28:03.271Z,34.05
2023-05-06T01:29:03.293Z,34.09
2023-05-06T01:30:03.332Z,34.09
2023-05-06T01:31:03.407Z,34.09
2023-05-06T01:32:03.444Z,34.09
2023-05-06T01:33:03.538Z,34.14
2023-05-06T01:34:03.466Z,34.09
2023-05-06T01:35:03.506Z,34.13
2023-05-06T01:36:03.510Z,34.09
2023-05-06T01:37:03.534Z,34.13
2023-05-06T01:38:03.583Z,34.09
2023-05-06T01:39:03.716Z,34.13
2023-05-06T01:40:03.654Z,34.10
2023-05-06T01:41:03.682Z,34.08
2023-05-06T01:42:03.692Z,34.10
2023-05-06T01:43:03.730Z,34.09
2023-05-06T01:44:03.771Z,34.09
2023-05-06T01:45:03.809Z,34.11
2023-05-06T01:46:03.941Z,34.16
2023-05-06T01:47:03.884Z,34.09
2023-05-06T01:48:03.965Z,34.10
2023-05-06T01:49:03.914Z,34.06
2023-05-06T01:50:03.989Z,34.11
2023-05-06T01:51:03.982Z,34.09
2023-05-06T01:52:04.019Z,34.10
2023-05-06T01:53:04.063Z,34.14
2023-05-06T01:54:04.093Z,34.14
2023-05-06T01:55:04.134Z,34.13
2023-05-06T01:56:04.152Z,34.14
2023-05-06T01:57:04.192Z,34.17
2023-05-06T01:58:04.230Z,34.07
2023-05-06T01:59:04.235Z,34.11
2023-05-06T02:00:04.300Z,34.14
2023-05-06T02:01:04.320Z,34.18
2023-05-06T02:02:04.414Z,34.10
2023-05-06T02:03:04.471Z,34.11
2023-05-06T02:04:04.633Z,34.15
2023-05-06T02:05:04.443Z,34.13
2023-05-06T02:06:04.481Z,34.14
2023-05-06T02:07:04.512Z,34.12
2023-05-06T02:08:04.591Z,34.13
2023-05-06T02:09:04.638Z,34.13
2023-05-06T02:10:04.611Z,34.13
2023-05-06T02:11:04.625Z,34.13
2023-05-06T02:12:04.670Z,34.11
2023-05-06T02:13:04.762Z,34.15
2023-05-06T02:14:04.753Z,34.10
2023-05-06T02:15:04.793Z,34.10
2023-05-06T02:16:04.832Z,34.13
2023-05-06T02:17:04.858Z,34.13
2023-05-06T02:18:04.965Z,34.11
2023-05-06T02:19:04.902Z,34.14
2023-05-06T02:20:04.982Z,34.14
2023-05-06T02:21:04.988Z,34.16
2023-05-06T02:22:05.000Z,34.16
2023-05-06T02:23:05.029Z,34.15
2023-05-06T02:24:05.051Z,34.15
2023-05-06T02:25:05.117Z,34.16
2023-05-06T02:26:05.130Z,34.14
2023-05-06T02:27:05.149Z,34.14
2023-05-06T02:28:05.185Z,34.12
2023-05-06T02:29:05.196Z,34.17
2023-05-06T02:30:05.254Z,34.15
2023-05-06T02:31:05.321Z,34.13
2023-05-06T02:32:05.308Z,34.13
2023-05-06T02:33:05.373Z,34.14
2023-05-06T02:34:05.374Z,34.11
2023-05-06T02:35:06.201Z,34.14
2023-05-06T02:36:05.415Z,34.12
2023-05-06T02:37:05.480Z,34.16
2023-05-06T02:38:05.487Z,34.18
2023-05-06T02:39:05.519Z,34.18
2023-05-06T02:40:05.536Z,34.14
2023-05-06T02:41:05.578Z,34.12
2023-05-06T02:42:05.595Z,34.12
2023-05-06T02:43:05.637Z,34.15
2023-05-06T02:44:05.681Z,34.11
2023-05-06T02:45:05.698Z,34.14
2023-05-06T02:46:05.775Z,34.10
2023-05-06T02:47:05.737Z,34.15
2023-05-06T02:48:05.829Z,34.16
2023-05-06T02:49:05.834Z,34.14
2023-05-06T02:50:05.885Z,34.12
2023-05-06T02:51:05.873Z,34.18
2023-05-06T02:52:06.060Z,34.14
2023-05-06T02:53:05.930Z,34.14
2023-05-06T02:54:05.972Z,34.11
2023-05-06T02:55:06.012Z,34.15
2023-05-06T02:56:06.083Z,34.10
2023-05-06T02:57:06.074Z,34.15
2023-05-06T02:58:06.115Z,34.14
2023-05-06T02:59:06.160Z,34.19
2023-05-06T03:00:06.221Z,34.15
2023-05-06T03:01:06.258Z,34.16
2023-05-06T03:02:06.252Z,34.20
2023-05-06T03:03:06.370Z,34.15
2023-05-06T03:04:06.381Z,34.11
2023-05-06T03:05:06.364Z,34.15
2023-05-06T03:06:06.425Z,34.16
2023-05-06T03:07:06.468Z,34.12
2023-05-06T03:08:06.583Z,34.14
2023-05-06T03:09:06.525Z,34.19
2023-05-06T03:10:06.577Z,34.14
2023-05-06T03:11:08.090Z,34.14
2023-05-06T03:12:06.631Z,34.14
2023-05-06T03:13:06.733Z,34.14
2023-05-06T03:14:06.747Z,34.09
2023-05-06T03:15:06.743Z,34.18
2023-05-06T03:16:06.822Z,34.14
2023-05-06T03:17:06.845Z,34.11
2023-05-06T03:18:06.921Z,34.14
2023-05-06T03:19:06.919Z,34.17
2023-05-06T03:20:06.957Z,34.18
2023-05-06T03:21:07.040Z,34.19
2023-05-06T03:22:07.029Z,34.12
2023-05-06T03:23:07.063Z,34.16
2023-05-06T03:24:07.137Z,34.16
2023-05-06T03:25:07.206Z,34.15
2023-05-06T03:26:07.187Z,34.13
2023-05-06T03:27:07.212Z,34.12
2023-05-06T03:28:07.248Z,34.13
2023-05-06T03:29:07.313Z,34.16
2023-05-06T03:30:07.322Z,34.12
2023-05-06T03:31:07.389Z,34.13
2023-05-06T03:32:07.387Z,34.10
2023-05-06T03:33:07.514Z,34.16
2023-05-06T03:34:07.464Z,34.16
2023-05-06T03:35:07.646Z,34.12
2023-05-06T03:36:07.554Z,34.18
2023-05-06T03:37:07.573Z,34.14
2023-05-06T03:38:07.619Z,34.11
2023-05-06T03:39:07.690Z,34.14
2023-05-06T03:40:07.738Z,34.17
2023-05-06T03:41:07.731Z,34.17
2023-05-06T03:42:09.402Z,34.14
2023-05-06T03:43:07.823Z,34.17
2023-05-06T03:44:07.843Z,34.18
2023-05-06T03:45:08.150Z,34.16
2023-05-06T03:46:08.010Z,34.16
2023-05-06T03:47:07.950Z,34.19
2023-05-06T03:48:08.014Z,34.16
2023-05-06T03:49:08.065Z,34.16
2023-05-06T03:50:08.087Z,34.16
2023-05-06T03:51:08.095Z,34.16
2023-05-06T03:52:08.109Z,34.14
2023-05-06T03:53:08.180Z,34.15
2023-05-06T03:54:08.231Z,34.21
2023-05-06T03:55:08.421Z,34.13
2023-05-06T03:56:08.393Z,34.15
2023-05-06T03:57:08.302Z,34.15
2023-05-06T03:58:08.367Z,34.13
2023-05-06T03:59:08.381Z,34.16
2023-05-06T04:00:08.415Z,34.18
2023-05-06T04:01:08.465Z,34.14
2023-05-06T04:02:08.489Z,34.15
2023-05-06T04:03:08.600Z,34.16
2023-05-06T04:04:08.679Z,34.20
2023-05-06T04:05:08.768Z,34.19
2023-05-06T04:06:08.661Z,34.16
2023-05-06T04:07:08.685Z,34.17
2023-05-06T04:08:08.696Z,34.14
2023-05-06T04:09:08.750Z,34.16
2023-05-06T04:10:08.779Z,34.19
2023-05-06T04:11:08.843Z,34.19
2023-05-06T04:12:08.931Z,34.17
2023-05-06T04:13:08.939Z,34.13
2023-05-06T04:14:08.944Z,34.13
2023-05-06T04:15:09.280Z,34.13
2023-05-06T04:16:09.068Z,34.16
2023-05-06T04:17:09.069Z,34.14
2023-05-06T04:18:09.322Z,34.14
2023-05-06T04:19:09.156Z,34.17
2023-05-06T04:20:09.192Z,34.10
2023-05-06T04:21:09.249Z,34.19
2023-05-06T04:22:09.262Z,34.13
2023-05-06T04:23:09.312Z,34.17
2023-05-06T04:24:09.372Z,34.14
2023-05-06T04:25:09.651Z,34.16
2023-05-06T04:26:09.418Z,34.16
2023-05-06T04:27:09.448Z,34.16
2023-05-06T04:28:09.533Z,34.14
2023-05-06T04:29:09.542Z,34.20
2023-05-06T04:30:09.575Z,34.12
2023-05-06T04:31:09.599Z,34.19
2023-05-06T04:32:09.695Z,34.19
2023-05-06T04:33:09.760Z,34.12
2023-05-06T04:34:09.751Z,34.13
2023-05-06T04:35:09.930Z,34.16
2023-05-06T04:36:09.802Z,34.19
2023-05-06T04:37:09.837Z,34.19
2023-05-06T04:38:09.884Z,34.17
2023-05-06T04:39:09.932Z,34.19
2023-05-06T04:40:09.961Z,34.20
2023-05-06T04:41:10.042Z,34.13
2023-05-06T04:42:10.053Z,34.12
2023-05-06T04:43:10.113Z,34.16
2023-05-06T04:44:10.194Z,34.12
2023-05-06T04:45:10.358Z,34.13
2023-05-06T04:46:10.284Z,34.20
2023-05-06T04:47:10.269Z,34.23
2023-05-06T04:48:10.338Z,34.16
2023-05-06T04:49:12.441Z,34.16
2023-05-06T04:50:10.409Z,34.17
2023-05-06T04:51:10.423Z,34.14
2023-05-06T04:52:10.500Z,34.18
2023-05-06T04:53:10.521Z,34.14
2023-05-06T04:54:10.580Z,34.21
2023-05-06T04:55:10.718Z,34.21
2023-05-06T04:56:10.631Z,34.19
2023-05-06T04:57:10.684Z,34.16
2023-05-06T04:58:10.747Z,34.21
2023-05-06T04:59:10.765Z,34.17
2023-05-06T05:00:11.045Z,34.17
2023-05-06T05:01:10.852Z,34.20
2023-05-06T05:02:10.933Z,34.19
2023-05-06T05:03:10.938Z,34.21
2023-05-06T05:04:10.941Z,34.18
2023-05-06T05:05:11.216Z,34.19
2023-05-06T05:06:11.008Z,34.19
2023-05-06T05:07:11.021Z,34.19
2023-05-06T05:08:11.038Z,34.17
2023-05-06T05:09:11.075Z,34.13
2023-05-06T05:10:11.130Z,34.17
2023-05-06T05:11:11.120Z,34.14
2023-05-06T05:12:11.157Z,34.14
2023-05-06T05:13:11.271Z,34.16
2023-05-06T05:14:11.208Z,34.13
2023-05-06T05:15:11.545Z,34.11
2023-05-06T05:16:11.336Z,34.16
2023-05-06T05:17:11.389Z,34.16
2023-05-06T05:18:11.350Z,34.14
2023-05-06T05:19:11.335Z,34.17
2023-05-06T05:20:11.366Z,34.15
2023-05-06T05:21:11.393Z,34.14
2023-05-06T05:22:11.421Z,34.16
2023-05-06T05:23:11.473Z,34.18
2023-05-06T05:24:11.499Z,34.20
2023-05-06T05:25:11.692Z,34.17
2023-05-06T05:26:11.546Z,34.19
2023-05-06T05:27:11.557Z,34.16
2023-05-06T05:28:11.622Z,34.12
2023-05-06T05:29:11.633Z,34.14
2023-05-06T05:30:11.746Z,34.17
2023-05-06T05:31:11.730Z,34.17
2023-05-06T05:32:11.766Z,34.19
2023-05-06T05:33:11.849Z,34.19
2023-05-06T05:34:11.769Z,34.14
2023-05-06T05:35:12.194Z,34.17
2023-05-06T05:36:11.819Z,34.19
2023-05-06T05:37:11.866Z,34.16
2023-05-06T05:38:11.872Z,34.20
2023-05-06T05:39:11.907Z,34.17
2023-05-06T05:40:11.953Z,34.17
2023-05-06T05:41:11.973Z,34.19
2023-05-06T05:42:12.033Z,34.20
2023-05-06T05:43:12.017Z,34.19
2023-05-06T05:44:12.091Z,34.17
2023-05-06T05:45:12.152Z,34.21
2023-05-06T05:46:12.198Z,34.19
2023-05-06T05:47:12.130Z,34.22
2023-05-06T05:48:12.324Z,34.21
2023-05-06T05:49:12.207Z,34.21
2023-05-06T05:50:12.271Z,34.22
2023-05-06T05:51:12.267Z,34.21
2023-05-06T05:52:12.292Z,34.21
2023-05-06T05:53:12.337Z,34.19
2023-05-06T05:54:12.361Z,34.21
2023-05-06T05:55:12.445Z,34.17
2023-05-06T05:56:12.411Z,34.21
2023-05-06T05:57:12.481Z,34.22
2023-05-06T05:58:12.486Z,34.19
2023-05-06T05:59:12.496Z,34.24
2023-05-06T06:00:13.576Z,34.19
2023-05-06T06:01:12.555Z,34.19
2023-05-06T06:02:12.607Z,34.21
2023-05-06T06:03:12.685Z,34.17
2023-05-06T06:04:12.792Z,34.19
2023-05-06T06:05:12.700Z,34.19
2023-05-06T06:06:12.705Z,34.19
2023-05-06T06:07:12.712Z,34.16
2023-05-06T06:08:12.767Z,34.20
2023-05-06T06:09:12.803Z,34.22
2023-05-06T06:10:12.800Z,34.16
2023-05-06T06:11:12.854Z,34.19
2023-05-06T06:12:12.904Z,34.19
2023-05-06T06:13:12.972Z,34.17
2023-05-06T06:14:12.943Z,34.19
2023-05-06T06:15:12.986Z,34.19
2023-05-06T06:16:13.151Z,34.19
2023-05-06T06:17:13.084Z,34.14
2023-05-06T06:18:13.108Z,34.19
2023-05-06T06:19:13.157Z,34.23
2023-05-06T06:20:13.292Z,34.19
2023-05-06T06:21:13.242Z,34.22
2023-05-06T06:22:13.291Z,34.18
2023-05-06T06:23:13.340Z,34.19
2023-05-06T06:24:13.374Z,34.19
2023-05-06T06:25:13.453Z,34.24
2023-05-06T06:26:13.521Z,34.21
2023-05-06T06:27:13.484Z,34.22
2023-05-06T06:28:13.537Z,34.20
2023-05-06T06:29:13.569Z,34.22
2023-05-06T06:30:13.629Z,34.20
2023-05-06T06:31:13.781Z,34.17
2023-05-06T06:32:13.771Z,34.19
2023-05-06T06:33:13.753Z,34.16
2023-05-06T06:34:13.790Z,34.21
2023-05-06T06:35:13.841Z,34.17
2023-05-06T06:36:13.847Z,34.20
2023-05-06T06:37:13.900Z,34.22
2023-05-06T06:38:13.939Z,34.23
2023-05-06T06:39:13.966Z,34.17
2023-05-06T06:40:14.039Z,34.23
2023-05-06T06:41:14.051Z,34.19
2023-05-06T06:42:14.086Z,34.21
2023-05-06T06:43:14.160Z,34.12
2023-05-06T06:44:14.165Z,34.19
2023-05-06T06:45:14.185Z,34.21
2023-05-06T06:46:14.266Z,34.20
2023-05-06T06:47:14.271Z,34.16
2023-05-06T06:48:14.338Z,34.21
2023-05-06T06:49:14.337Z,34.19
2023-05-06T06:50:14.373Z,34.17
2023-05-06T06:51:14.400Z,34.14
2023-05-06T06:52:14.541Z,34.19
2023-05-06T06:53:14.522Z,34.14
2023-05-06T06:54:14.539Z,34.11
2023-05-06T06:55:14.584Z,34.14
2023-05-06T06:56:14.600Z,34.19
2023-05-06T06:57:14.630Z,34.12
2023-05-06T06:58:14.686Z,34.14
2023-05-06T06:59:14.718Z,34.15
2023-05-06T07:00:14.768Z,34.11
2023-05-06T07:01:14.896Z,34.16
2023-05-06T07:02:14.809Z,34.11
2023-05-06T07:03:14.859Z,34.10
2023-05-06T07:04:14.946Z,34.08
2023-05-06T07:05:14.907Z,34.14
2023-05-06T07:06:14.953Z,34.08
2023-05-06T07:07:15.000Z,34.10
2023-05-06T07:08:15.080Z,34.08
2023-05-06T07:09:15.106Z,34.11
2023-05-06T07:10:15.125Z,34.09
2023-05-06T07:11:15.148Z,34.11
2023-05-06T07:12:15.192Z,34.09
2023-05-06T07:13:15.234Z,34.05
2023-05-06T07:14:15.240Z,34.11
2023-05-06T07:15:15.304Z,34.09
2023-05-06T07:16:15.339Z,34.09
2023-05-06T07:17:15.413Z,34.09
2023-05-06T07:18:15.431Z,34.04
2023-05-06T07:19:15.400Z,34.06
2023-05-06T07:20:15.475Z,34.04
2023-05-06T07:21:15.476Z,34.06
2023-05-06T07:22:15.507Z,34.04
2023-05-06T07:23:15.582Z,34.06
2023-05-06T07:24:15.717Z,34.10
2023-05-06T07:25:15.655Z,34.02
2023-05-06T07:26:15.653Z,34.07
2023-05-06T07:27:15.713Z,34.05
2023-05-06T07:28:15.795Z,34.02
2023-05-06T07:29:15.754Z,34.05
2023-05-06T07:30:15.811Z,34.04
2023-05-06T07:31:15.863Z,34.04
2023-05-06T07:32:15.855Z,33.98
2023-05-06T07:33:15.874Z,33.95
2023-05-06T07:34:15.886Z,33.95
2023-05-06T07:35:15.922Z,34.00
2023-05-06T07:36:15.999Z,33.98
2023-05-06T07:37:15.970Z,34.00
2023-05-06T07:38:16.037Z,33.98
2023-05-06T07:39:16.044Z,33.98
2023-05-06T07:40:16.168Z,33.97
2023-05-06T07:41:16.087Z,33.96
2023-05-06T07:42:16.123Z,33.96
2023-05-06T07:43:16.157Z,33.97
2023-05-06T07:44:16.186Z,33.94
2023-05-06T07:45:16.195Z,33.95
2023-05-06T07:46:16.236Z,33.88
2023-05-06T07:47:16.345Z,33.91
2023-05-06T07:48:18.605Z,33.91
2023-05-06T07:49:16.267Z,33.89
2023-05-06T07:50:16.267Z,33.92
2023-05-06T07:51:16.232Z,33.88
2023-05-06T07:52:16.231Z,33.88
2023-05-06T07:53:16.222Z,33.92
2023-05-06T07:54:16.216Z,33.89
2023-05-06T07:55:16.212Z,33.86
2023-05-06T07:56:16.266Z,33.89
2023-05-06T07:57:16.184Z,33.87
2023-05-06T07:58:16.220Z,33.91
2023-05-06T07:59:16.183Z,33.88
2023-05-06T08:00:16.194Z,33.91
2023-05-06T08:01:16.162Z,33.84
2023-05-06T08:02:16.161Z,33.87
2023-05-06T08:03:16.243Z,33.84
2023-05-06T08:04:16.175Z,33.84
2023-05-06T08:05:16.166Z,33.84
2023-05-06T08:06:16.181Z,33.84
2023-05-06T08:07:16.154Z,33.81
2023-05-06T08:08:16.119Z,33.82
2023-05-06T08:09:22.765Z,33.85
2023-05-06T08:10:17.145Z,33.82
2023-05-06T08:11:17.499Z,33.83
2023-05-06T08:12:16.176Z,33.83
2023-05-06T08:13:16.208Z,33.81
2023-05-06T08:14:16.071Z,33.81
2023-05-06T08:15:16.123Z,33.78
2023-05-06T08:16:16.131Z,33.79
2023-05-06T08:17:16.073Z,33.77
2023-05-06T08:18:22.490Z,33.79
2023-05-06T08:19:17.075Z,33.77
2023-05-06T08:20:16.077Z,33.77
2023-05-06T08:21:16.042Z,33.74
2023-05-06T08:22:16.020Z,33.77
2023-05-06T08:23:16.035Z,33.74
2023-05-06T08:24:16.037Z,33.82
2023-05-06T08:25:16.022Z,33.77
2023-05-06T08:26:15.995Z,33.77
2023-05-06T08:27:15.985Z,33.81
2023-05-06T08:28:16.047Z,33.77
2023-05-06T08:29:15.997Z,33.82
2023-05-06T08:30:15.992Z,33.76
2023-05-06T08:31:15.986Z,33.76
2023-05-06T08:32:15.957Z,33.77
2023-05-06T08:33:15.948Z,33.77
2023-05-06T08:34:15.931Z,33.81
2023-05-06T08:35:16.006Z,33.78
2023-05-06T08:36:15.930Z,33.81
2023-05-06T08:37:15.942Z,33.78
2023-05-06T08:38:15.937Z,33.81
2023-05-06T08:39:15.913Z,33.77
2023-05-06T08:40:15.901Z,33.76
2023-05-06T08:41:15.902Z,33.78
2023-05-06T08:42:15.905Z,33.81
2023-05-06T08:43:15.948Z,33.76
2023-05-06T08:44:15.890Z,33.78
2023-05-06T08:45:15.898Z,33.77
2023-05-06T08:46:16.026Z,33.76
2023-05-06T08:47:15.947Z,33.78
2023-05-06T08:48:15.950Z,33.78
2023-05-06T08:49:15.933Z,33.77
2023-05-06T08:50:15.984Z,33.74
2023-05-06T08:51:15.963Z,33.78
2023-05-06T08:52:15.983Z,33.76
2023-05-06T08:53:16.034Z,33.74
2023-05-06T08:54:16.021Z,33.76
2023-05-06T08:55:16.028Z,33.80
2023-05-06T08:56:16.036Z,33.78
2023-05-06T08:57:16.042Z,33.77
2023-05-06T08:58:16.068Z,33.76
2023-05-06T08:59:16.083Z,33.84
2023-05-06T09:00:16.180Z,33.87
2023-05-06T09:01:16.134Z,33.84
2023-05-06T09:02:16.128Z,33.85
2023-05-06T09:03:16.322Z,33.84
2023-05-06T09:04:16.114Z,33.87
2023-05-06T09:05:16.178Z,33.91
2023-05-06T09:06:16.150Z,33.82
2023-05-06T09:07:16.124Z,33.84
2023-05-06T09:08:16.183Z,33.89
2023-05-06T09:09:16.154Z,33.88
2023-05-06T09:10:16.229Z,33.91
2023-05-06T09:11:16.186Z,33.89
2023-05-06T09:12:16.186Z,33.88
2023-05-06T09:13:16.257Z,33.88
2023-05-06T09:14:16.264Z,33.86
2023-05-06T09:15:16.270Z,33.90
2023-05-06T09:16:16.309Z,33.93
2023-05-06T09:17:16.255Z,33.92
2023-05-06T09:18:16.331Z,33.90
2023-05-06T09:19:16.270Z,33.92
2023-05-06T09:20:16.298Z,33.93
2023-05-06T09:21:16.336Z,33.94
2023-05-06T09:22:16.346Z,34.00
2023-05-06T09:23:16.378Z,33.94
2023-05-06T09:24:16.374Z,33.97
2023-05-06T09:25:16.398Z,33.94
2023-05-06T09:26:16.406Z,33.93
2023-05-06T09:27:16.392Z,33.95
2023-05-06T09:28:16.413Z,33.98
2023-05-06T09:29:16.419Z,33.94
2023-05-06T09:30:16.479Z,33.97
2023-05-06T09:31:16.498Z,33.95
2023-05-06T09:32:16.524Z,33.97
2023-05-06T09:33:16.544Z,33.98
2023-05-06T09:34:16.503Z,33.98
2023-05-06T09:35:16.607Z,34.01
2023-05-06T09:36:16.562Z,34.04
2023-05-06T09:37:16.542Z,33.97
2023-05-06T09:38:16.578Z,34.00
2023-05-06T09:39:16.587Z,34.01
2023-05-06T09:40:16.637Z,34.01
2023-05-06T09:41:16.633Z,33.98
2023-05-06T09:42:16.655Z,34.04
2023-05-06T09:43:16.681Z,33.97
2023-05-06T09:44:16.670Z,34.01
2023-05-06T09:45:16.665Z,34.01
2023-05-06T09:46:16.747Z,33.97
2023-05-06T09:47:16.695Z,34.01
2023-05-06T09:48:16.928Z,33.98
2023-05-06T09:49:16.769Z,33.96
2023-05-06T09:50:16.741Z,33.97
2023-05-06T09:51:16.753Z,33.96
2023-05-06T09:52:16.782Z,33.95
2023-05-06T09:53:16.785Z,33.94
2023-05-06T09:54:16.793Z,33.89
2023-05-06T09:55:16.825Z,33.91
2023-05-06T09:56:16.785Z,33.96
2023-05-06T09:57:16.806Z,33.92
2023-05-06T09:58:16.851Z,33.95
2023-05-06T09:59:16.821Z,33.98
2023-05-06T10:00:16.830Z,33.95
2023-05-06T10:01:25.044Z,33.94
2023-05-06T10:02:18.012Z,33.92
2023-05-06T10:03:17.001Z,33.92
2023-05-06T10:04:17.024Z,33.95
2023-05-06T10:05:17.325Z,33.94
2023-05-06T10:06:16.797Z,33.99
2023-05-06T10:07:16.818Z,33.96
2023-05-06T10:08:16.776Z,33.97
2023-05-06T10:09:16.780Z,33.95
2023-05-06T10:10:16.804Z,33.94
2023-05-06T10:11:16.753Z,33.94
2023-05-06T10:12:16.775Z,33.94
2023-05-06T10:13:16.831Z,33.92
2023-05-06T10:14:16.768Z,33.94
2023-05-06T10:15:16.909Z,33.90
2023-05-06T10:16:16.797Z,33.89
2023-05-06T10:17:16.736Z,33.94
2023-05-06T10:18:16.724Z,33.92
2023-05-06T10:19:16.742Z,33.85
2023-05-06T10:20:16.792Z,33.82
2023-05-06T10:21:16.682Z,33.83
2023-05-06T10:22:16.694Z,33.85
2023-05-06T10:23:16.669Z,33.80
2023-05-06T10:24:16.691Z,33.83
2023-05-06T10:25:16.651Z,33.79
2023-05-06T10:26:16.685Z,33.80
2023-05-06T10:27:16.646Z,33.82
2023-05-06T10:28:21.943Z,33.80
2023-05-06T10:29:17.652Z,33.82
2023-05-06T10:30:16.671Z,33.77
2023-05-06T10:31:16.670Z,33.84
2023-05-06T10:32:16.618Z,33.83
2023-05-06T10:33:16.597Z,33.85
2023-05-06T10:34:16.897Z,33.84
2023-05-06T10:35:16.602Z,33.84
2023-05-06T10:36:16.691Z,33.80
2023-05-06T10:37:16.587Z,33.83
2023-05-06T10:38:16.569Z,33.84
2023-05-06T10:39:16.596Z,33.77
2023-05-06T10:40:16.631Z,33.83
2023-05-06T10:41:16.584Z,33.80
2023-05-06T10:42:16.577Z,33.82
2023-05-06T10:43:16.545Z,33.80
2023-05-06T10:44:16.530Z,33.78
2023-05-06T10:45:16.529Z,33.81
2023-05-06T10:46:16.580Z,33.75
2023-05-06T10:47:16.517Z,33.79
2023-05-06T10:48:16.501Z,33.82
2023-05-06T10:49:16.576Z,33.78
2023-05-06T10:50:16.530Z,33.83
2023-05-06T10:51:16.490Z,33.80
2023-05-06T10:52:16.470Z,33.79
2023-05-06T10:53:16.447Z,33.82
2023-05-06T10:54:16.454Z,33.77
2023-05-06T10:55:16.459Z,33.75
2023-05-06T10:56:16.471Z,33.71
2023-05-06T10:57:16.456Z,33.82
2023-05-06T10:58:16.455Z,33.78
2023-05-06T10:59:16.426Z,33.83
2023-05-06T11:00:16.410Z,33.74
2023-05-06T11:01:16.488Z,33.81
2023-05-06T11:02:16.425Z,33.74
2023-05-06T11:03:16.482Z,33.78
2023-05-06T11:04:16.424Z,33.80
2023-05-06T11:05:16.376Z,33.78
2023-05-06T11:06:16.373Z,33.77
2023-05-06T11:07:16.369Z,33.75
2023-05-06T11:08:16.410Z,33.77
2023-05-06T11:09:16.355Z,33.74
2023-05-06T11:10:16.355Z,33.78
2023-05-06T11:11:16.347Z,33.75
2023-05-06T11:12:16.357Z,33.85
2023-05-06T11:13:16.352Z,33.78
2023-05-06T11:14:16.327Z,33.81
2023-05-06T11:15:16.318Z,33.83
2023-05-06T11:16:16.296Z,33.81
2023-05-06T11:17:16.297Z,33.81
2023-05-06T11:18:16.301Z,33.85
2023-05-06T11:19:16.293Z,33.82
2023-05-06T11:20:16.274Z,33.81
2023-05-06T11:21:16.288Z,33.83
2023-05-06T11:22:16.273Z,33.86
2023-05-06T11:23:16.275Z,33.80
2023-05-06T11:24:16.350Z,33.89
2023-05-06T11:25:16.314Z,33.87
2023-05-06T11:26:16.369Z,33.83
2023-05-06T11:27:16.350Z,33.83
2023-05-06T11:28:16.324Z,33.87
2023-05-06T11:29:16.322Z,33.85
2023-05-06T11:30:16.349Z,33.81
2023-05-06T11:31:16.381Z,33.83
2023-05-06T11:32:16.327Z,33.80
2023-05-06T11:33:16.335Z,33.81
2023-05-06T11:34:16.326Z,33.81
2023-05-06T11:35:16.302Z,33.78
2023-05-06T11:36:16.310Z,33.80
2023-05-06T11:37:16.348Z,33.75
2023-05-06T11:38:16.305Z,33.76
2023-05-06T11:39:16.329Z,33.76
2023-05-06T11:40:16.578Z,33.76
2023-05-06T11:41:16.285Z,33.73
2023-05-06T11:42:16.287Z,33.76
2023-05-06T11:43:16.288Z,33.75
2023-05-06T11:44:16.346Z,33.74
2023-05-06T11:45:16.277Z,33.71
2023-05-06T11:46:16.298Z,33.70
2023-05-06T11:47:16.261Z,33.70
2023-05-06T11:48:16.258Z,33.70
2023-05-06T11:49:16.302Z,33.64
2023-05-06T11:50:16.266Z,33.64
2023-05-06T11:51:16.405Z,33.67
2023-05-06T11:52:16.379Z,33.65
2023-05-06T11:53:16.266Z,33.65
2023-05-06T11:54:16.291Z,33.64
2023-05-06T11:55:16.321Z,33.72
2023-05-06T11:56:16.582Z,33.67
2023-05-06T11:57:16.274Z,33.61
2023-05-06T11:58:16.291Z,33.71
2023-05-06T11:59:16.270Z,33.68
2023-05-06T12:00:16.277Z,33.71
2023-05-06T12:01:16.266Z,33.71
2023-05-06T12:02:16.347Z,33.70
2023-05-06T12:03:16.312Z,33.71
2023-05-06T12:04:16.285Z,33.70
2023-05-06T12:05:16.293Z,33.70
2023-05-06T12:06:16.312Z,33.73
2023-05-06T12:07:16.375Z,33.64
2023-05-06T12:08:26.613Z,33.69
2023-05-06T12:09:17.288Z,33.65
2023-05-06T12:10:16.283Z,33.71
2023-05-06T12:11:16.288Z,33.68
2023-05-06T12:12:16.360Z,33.67
2023-05-06T12:13:16.388Z,33.66
2023-05-06T12:14:16.250Z,33.70
2023-05-06T12:15:16.240Z,33.71
2023-05-06T12:16:16.331Z,33.71
2023-05-06T12:17:16.248Z,33.70
2023-05-06T12:18:16.251Z,33.66
2023-05-06T12:19:16.251Z,33.69
2023-05-06T12:20:16.251Z,33.64
2023-05-06T12:21:16.205Z,33.66
2023-05-06T12:22:16.265Z,33.72
2023-05-06T12:23:16.205Z,33.67
2023-05-06T12:24:16.233Z,33.73
2023-05-06T12:25:16.210Z,33.72
2023-05-06T12:26:16.218Z,33.67
2023-05-06T12:27:16.202Z,33.71
2023-05-06T12:28:16.256Z,33.71
2023-05-06T12:29:16.486Z,33.66
2023-05-06T12:30:16.292Z,33.76
2023-05-06T12:31:16.375Z,33.70
2023-05-06T12:32:16.352Z,33.73
2023-05-06T12:33:16.403Z,33.73
2023-05-06T12:34:16.937Z,33.70
2023-05-06T12:35:16.437Z,33.74
2023-05-06T12:36:16.463Z,33.76
2023-05-06T12:37:16.483Z,33.71
2023-05-06T12:38:16.504Z,33.76
2023-05-06T12:39:16.473Z,33.73
2023-05-06T12:40:16.485Z,33.67
2023-05-06T12:41:16.536Z,33.67
2023-05-06T12:42:16.583Z,33.73
2023-05-06T12:43:16.566Z,33.72
2023-05-06T12:44:16.657Z,33.75
2023-05-06T12:45:16.623Z,33.77
2023-05-06T12:46:16.694Z,33.71
2023-05-06T12:47:16.659Z,33.77
2023-05-06T12:48:16.725Z,33.77
2023-05-06T12:49:16.697Z,33.80
2023-05-06T12:50:16.727Z,33.75
2023-05-06T12:51:16.773Z,33.69
2023-05-06T12:52:16.740Z,33.75